createdAt,value
2022-09-13T00:02:17.565Z,7.20
2022-09-13T00:04:50.714Z,7.20
2022-09-13T00:07:37.451Z,7.21
2022-09-13T00:10:12.338Z,7.21
2022-09-13T00:13:00.462Z,7.19
2022-09-13T00:15:41.497Z,7.19
2022-09-13T00:18:35.471Z,7.18
2022-09-13T00:21:25.489Z,7.07
2022-09-13T00:24:07.492Z,7.04
2022-09-13T00:27:01.481Z,7.04
2022-09-13T00:29:48.486Z,7.02
2022-09-13T00:32:21.555Z,7.01
2022-09-13T00:35:09.494Z,7.04
2022-09-13T00:37:42.564Z,7.01
2022-09-13T00:40:29.566Z,6.99
2022-09-13T00:43:02.562Z,6.99
2022-09-13T00:45:49.532Z,6.93
2022-09-13T00:48:30.975Z,6.89
2022-09-13T00:51:18.476Z,6.91
2022-09-13T00:53:56.621Z,6.92
2022-09-13T00:56:50.486Z,6.93
2022-09-13T00:59:29.541Z,6.94
2022-09-13T01:02:16.563Z,6.92
2022-09-13T01:04:57.494Z,6.93
2022-09-13T01:07:51.499Z,6.88
2022-09-13T01:10:38.485Z,6.83
2022-09-13T01:13:29.581Z,6.81
2022-09-13T01:16:16.565Z,6.76
2022-09-13T01:18:49.548Z,6.65
2022-09-13T01:22:07.500Z,6.60
2022-09-13T01:25:05.489Z,6.55
2022-09-13T01:28:08.524Z,6.55
2022-09-13T01:31:10.497Z,6.56
2022-09-13T01:33:57.586Z,6.53
2022-09-13T01:37:05.500Z,6.55
2022-09-13T01:39:55.741Z,6.59
2022-09-13T01:42:54.502Z,6.59
2022-09-13T01:45:46.579Z,6.56
2022-09-13T01:49:09.524Z,6.55
2022-09-13T01:52:12.529Z,6.53
2022-09-13T01:54:48.592Z,6.51
2022-09-13T01:57:41.522Z,6.50
2022-09-13T02:00:26.522Z,6.45
2022-09-13T02:04:03.507Z,6.41
2022-09-13T02:06:59.541Z,6.39
2022-09-13T02:09:36.596Z,6.38
2022-09-13T02:12:28.488Z,6.34
2022-09-13T02:15:37.532Z,6.31
2022-09-13T02:18:40.540Z,6.32
2022-09-13T02:21:42.615Z,6.33
2022-09-13T02:24:49.547Z,6.36
2022-09-13T02:27:39.541Z,6.37
2022-09-13T02:30:15.590Z,6.36
2022-09-13T02:33:13.544Z,6.34
2022-09-13T02:36:07.522Z,6.33
2022-09-13T02:39:02.550Z,6.27
2022-09-13T02:42:12.461Z,6.21
2022-09-13T02:45:09.545Z,6.15
2022-09-13T02:48:25.529Z,6.08
2022-09-13T02:51:29.564Z,6.03
2022-09-13T02:54:29.543Z,6.01
2022-09-13T02:57:20.560Z,6.03
2022-09-13T03:00:07.543Z,6.06
2022-09-13T03:02:41.847Z,6.07
2022-09-13T03:05:28.539Z,6.10
2022-09-13T03:08:09.540Z,6.09
2022-09-13T03:11:29.560Z,6.04
2022-09-13T03:14:22.550Z,5.99
2022-09-13T03:17:37.574Z,5.97
2022-09-13T03:20:46.551Z,5.92
2022-09-13T03:23:36.594Z,5.87
2022-09-13T03:26:31.626Z,5.84
2022-09-13T03:29:30.590Z,5.89
2022-09-13T03:32:28.570Z,5.91
2022-09-13T03:35:27.550Z,5.89
2022-09-13T03:38:15.573Z,5.92
2022-09-13T03:41:32.560Z,5.96
2022-09-13T03:44:30.562Z,5.95
2022-09-13T03:47:18.550Z,5.95
2022-09-13T03:49:52.570Z,5.90
2022-09-13T03:52:42.236Z,5.88
2022-09-13T03:55:25.548Z,5.89
2022-09-13T03:58:19.567Z,5.89
2022-09-13T04:01:06.614Z,5.91
2022-09-13T04:03:39.641Z,5.91
2022-09-13T04:06:26.579Z,5.89
2022-09-13T04:09:07.715Z,5.88
2022-09-13T04:11:54.579Z,5.88
2022-09-13T04:14:28.291Z,5.88
2022-09-13T04:17:14.595Z,5.85
2022-09-13T04:19:48.695Z,5.84
2022-09-13T04:22:35.588Z,5.83
2022-09-13T04:25:15.560Z,5.81
2022-09-13T04:28:04.575Z,5.79
2022-09-13T04:30:44.568Z,5.78
2022-09-13T04:33:31.592Z,5.79
2022-09-13T04:36:12.584Z,5.81
2022-09-13T04:38:59.578Z,5.79
2022-09-13T04:41:41.595Z,5.81
2022-09-13T04:44:30.587Z,5.79
2022-09-13T04:47:03.668Z,5.75
2022-09-13T04:49:50.589Z,5.76
2022-09-13T04:52:26.657Z,5.77
2022-09-13T04:55:13.609Z,5.77
2022-09-13T04:57:47.654Z,5.75
2022-09-13T05:00:34.591Z,5.76
2022-09-13T05:03:08.676Z,5.75
2022-09-13T05:05:55.583Z,5.76
2022-09-13T05:08:35.602Z,5.76
2022-09-13T05:11:29.594Z,5.75
2022-09-13T05:14:24.601Z,5.77
2022-09-13T05:17:11.598Z,5.77
2022-09-13T05:19:44.679Z,5.78
2022-09-13T05:22:31.597Z,5.89
2022-09-13T05:25:11.600Z,6.03
2022-09-13T05:27:58.620Z,6.17
2022-09-13T05:30:34.742Z,6.30
2022-09-13T05:33:21.638Z,6.44
2022-09-13T05:35:54.685Z,6.57
2022-09-13T05:38:41.605Z,6.70
2022-09-13T05:41:21.636Z,6.84
2022-09-13T05:44:15.587Z,6.97
2022-09-13T05:47:02.612Z,7.09
2022-09-13T05:49:45.990Z,7.23
2022-09-13T05:52:42.616Z,7.38
2022-09-13T05:55:15.699Z,7.52
2022-09-13T05:58:02.604Z,7.66
2022-09-13T06:00:36.710Z,7.79
2022-09-13T06:03:23.614Z,7.92
2022-09-13T06:05:56.859Z,8.06
2022-09-13T06:08:43.613Z,8.22
2022-09-13T06:11:20.171Z,8.35
2022-09-13T06:14:06.639Z,8.49
2022-09-13T06:16:39.687Z,8.62
2022-09-13T06:19:33.639Z,8.76
2022-09-13T06:22:27.622Z,8.89
2022-09-13T06:25:15.647Z,9.03
2022-09-13T06:27:55.646Z,9.15
2022-09-13T06:30:49.618Z,9.28
2022-09-13T06:33:36.630Z,9.41
2022-09-13T06:36:20.640Z,9.55
2022-09-13T06:39:14.651Z,9.69
2022-09-13T06:42:08.640Z,9.81
2022-09-13T06:44:55.635Z,9.92
2022-09-13T06:47:28.706Z,10.09
2022-09-13T06:50:15.616Z,10.27
2022-09-13T06:52:55.637Z,10.41
2022-09-13T06:55:49.653Z,10.59
2022-09-13T06:58:38.685Z,10.71
2022-09-13T07:01:22.750Z,10.87
2022-09-13T07:04:21.655Z,10.97
2022-09-13T07:07:01.675Z,11.04
2022-09-13T07:09:45.990Z,11.12
2022-09-13T07:12:25.663Z,11.22
2022-09-13T07:15:05.662Z,11.32
2022-09-13T07:17:38.767Z,11.43
2022-09-13T07:20:25.607Z,11.60
2022-09-13T07:23:05.648Z,11.75
2022-09-13T07:26:11.673Z,11.82
2022-09-13T07:29:01.649Z,11.89
2022-09-13T07:31:40.756Z,11.90
2022-09-13T07:34:29.665Z,11.92
2022-09-13T07:37:09.666Z,11.98
2022-09-13T07:39:56.709Z,12.02
2022-09-13T07:42:36.662Z,12.02
2022-09-13T07:45:30.679Z,12.05
2022-09-13T07:48:24.655Z,12.15
2022-09-13T07:51:12.692Z,12.24
2022-09-13T07:53:57.136Z,12.34
2022-09-13T07:56:53.683Z,12.43
2022-09-13T07:59:40.686Z,12.48
2022-09-13T08:02:15.775Z,12.60
2022-09-13T08:05:02.714Z,12.71
2022-09-13T08:07:42.692Z,12.87
2022-09-13T08:10:36.681Z,12.93
2022-09-13T08:13:30.686Z,12.99
2022-09-13T08:16:17.735Z,13.02
2022-09-13T08:18:52.766Z,13.07
2022-09-13T08:21:46.661Z,13.09
2022-09-13T08:24:27.004Z,13.11
2022-09-13T08:27:13.663Z,13.15
2022-09-13T08:29:53.698Z,13.23
2022-09-13T08:32:47.687Z,13.35
2022-09-13T08:35:42.707Z,13.57
2022-09-13T08:38:29.688Z,13.75
2022-09-13T08:41:06.821Z,13.90
2022-09-13T08:44:08.696Z,13.97
2022-09-13T08:46:52.830Z,14.06
2022-09-13T08:49:50.714Z,14.06
2022-09-13T08:52:41.843Z,14.06
2022-09-13T08:55:36.705Z,14.03
2022-09-13T08:58:42.709Z,14.02
2022-09-13T09:02:27.754Z,14.07
2022-09-13T09:05:00.775Z,14.14
2022-09-13T09:07:52.705Z,14.23
2022-09-13T09:10:33.875Z,14.39
2022-09-13T09:13:43.706Z,14.47
2022-09-13T09:16:51.719Z,14.53
2022-09-13T09:19:54.718Z,14.60
2022-09-13T09:22:42.712Z,14.69
2022-09-13T09:25:18.793Z,14.78
2022-09-13T09:28:06.730Z,14.81
2022-09-13T09:31:10.807Z,14.83
2022-09-13T09:34:16.742Z,14.82
2022-09-13T09:37:03.842Z,14.81
2022-09-13T09:39:50.767Z,14.86
2022-09-13T09:42:38.727Z,14.91
2022-09-13T09:45:37.745Z,14.92
2022-09-13T09:48:36.744Z,14.89
2022-09-13T09:51:33.719Z,14.88
2022-09-13T09:54:20.734Z,14.93
2022-09-13T09:57:08.715Z,15.02
2022-09-13T09:59:55.771Z,15.21
2022-09-13T10:02:28.882Z,15.31
2022-09-13T10:05:16.737Z,15.43
2022-09-13T10:07:57.904Z,15.56
2022-09-13T10:10:57.762Z,15.69
2022-09-13T10:13:51.746Z,15.80
2022-09-13T10:16:38.769Z,15.86
2022-09-13T10:19:32.841Z,15.88
2022-09-13T10:22:19.762Z,15.84
2022-09-13T10:24:54.084Z,15.81
2022-09-13T10:27:49.740Z,15.77
2022-09-13T10:30:37.889Z,15.72
2022-09-13T10:33:41.757Z,15.70
2022-09-13T10:36:51.238Z,15.65
2022-09-13T10:39:32.762Z,15.62
2022-09-13T10:42:16.760Z,15.58
2022-09-13T10:44:52.823Z,15.55
2022-09-13T10:47:44.775Z,15.54
2022-09-13T10:50:37.831Z,15.56
2022-09-13T10:53:45.763Z,15.58
2022-09-13T10:56:33.071Z,15.58
2022-09-13T10:59:28.772Z,15.57
2022-09-13T11:02:30.080Z,15.57
2022-09-13T11:05:28.794Z,15.58
2022-09-13T11:08:38.752Z,15.58
2022-09-13T11:11:38.758Z,15.56
2022-09-13T11:15:04.779Z,15.56
2022-09-13T11:17:47.786Z,15.57
2022-09-13T11:21:03.782Z,15.58
2022-09-13T11:24:05.769Z,15.58
2022-09-13T11:27:03.775Z,15.60
2022-09-13T11:30:08.760Z,15.60
2022-09-13T11:33:18.785Z,15.59
2022-09-13T11:36:11.301Z,15.57
2022-09-13T11:39:32.795Z,15.57
2022-09-13T11:42:24.868Z,15.57
2022-09-13T11:45:22.208Z,15.60
2022-09-13T11:48:25.790Z,15.59
2022-09-13T11:51:28.806Z,15.58
2022-09-13T11:54:11.799Z,15.60
2022-09-13T11:57:17.819Z,15.62
2022-09-13T12:00:16.803Z,15.60
2022-09-13T12:03:16.151Z,15.62
2022-09-13T12:06:15.806Z,15.63
2022-09-13T12:09:08.804Z,15.61
2022-09-13T12:11:49.992Z,15.61
2022-09-13T12:14:43.794Z,15.64
2022-09-13T12:17:35.889Z,15.64
2022-09-13T12:20:44.806Z,15.66
2022-09-13T12:23:27.904Z,15.66
2022-09-13T12:26:28.830Z,15.65
2022-09-13T12:29:06.882Z,15.66
2022-09-13T12:31:53.838Z,15.66
2022-09-13T12:34:34.887Z,15.68
2022-09-13T12:37:55.840Z,15.68
2022-09-13T12:41:08.881Z,15.68
2022-09-13T12:44:20.826Z,15.66
2022-09-13T12:47:19.828Z,15.66
2022-09-13T12:50:47.136Z,15.67
2022-09-13T12:53:48.952Z,15.67
2022-09-13T12:56:58.862Z,15.69
2022-09-13T13:00:24.817Z,15.69
2022-09-13T13:03:13.019Z,15.70
2022-09-13T13:06:16.821Z,15.69
2022-09-13T13:09:04.876Z,15.69
2022-09-13T13:12:00.852Z,15.72
2022-09-13T13:14:47.836Z,15.73
2022-09-13T13:17:49.001Z,15.74
2022-09-13T13:20:54.830Z,15.73
2022-09-13T13:23:52.856Z,15.71
2022-09-13T13:27:09.840Z,15.71
2022-09-13T13:30:48.864Z,15.75
2022-09-13T13:33:38.115Z,15.79
2022-09-13T13:36:34.924Z,15.83
2022-09-13T13:39:33.862Z,15.84
2022-09-13T13:42:38.437Z,15.87
2022-09-13T13:45:28.866Z,15.91
2022-09-13T13:48:15.938Z,15.96
2022-09-13T13:51:18.863Z,16.00
2022-09-13T13:54:20.953Z,16.01
2022-09-13T13:57:09.723Z,15.99
2022-09-13T13:59:51.855Z,15.97
2022-09-13T14:03:04.880Z,15.94
2022-09-13T14:06:37.847Z,15.93
2022-09-13T14:10:01.869Z,15.91
2022-09-13T14:12:50.940Z,15.92
2022-09-13T14:15:53.869Z,15.92
2022-09-13T14:18:44.871Z,15.94
2022-09-13T14:21:39.879Z,15.93
2022-09-13T14:24:30.867Z,15.97
2022-09-13T14:27:09.350Z,15.97
2022-09-13T14:30:07.889Z,15.96
2022-09-13T14:32:53.971Z,15.97
2022-09-13T14:35:47.903Z,15.94
2022-09-13T14:38:42.938Z,15.89
2022-09-13T14:41:46.886Z,15.83
2022-09-13T14:44:34.873Z,15.79
2022-09-13T14:47:26.909Z,15.75
2022-09-13T14:50:27.890Z,15.71
2022-09-13T14:53:29.907Z,15.71
2022-09-13T14:56:38.882Z,15.73
2022-09-13T14:59:57.950Z,15.72
2022-09-13T15:02:46.885Z,15.74
2022-09-13T15:05:23.956Z,15.75
2022-09-13T15:08:53.904Z,15.71
2022-09-13T15:11:40.987Z,15.68
2022-09-13T15:14:45.921Z,15.68
2022-09-13T15:17:19.971Z,15.68
2022-09-13T15:20:18.899Z,15.67
2022-09-13T15:23:12.899Z,15.67
2022-09-13T15:26:01.924Z,15.65
2022-09-13T15:28:45.914Z,15.68
2022-09-13T15:31:44.962Z,15.67
2022-09-13T15:34:33.918Z,15.67
2022-09-13T15:37:26.894Z,15.65
2022-09-13T15:40:34.970Z,15.64
2022-09-13T15:43:28.954Z,15.64
2022-09-13T15:46:27.980Z,15.63
2022-09-13T15:49:23.918Z,15.60
2022-09-13T15:52:03.031Z,15.58
2022-09-13T15:54:49.943Z,15.56
2022-09-13T15:57:28.990Z,15.53
2022-09-13T16:00:22.935Z,15.49
2022-09-13T16:03:02.919Z,15.47
2022-09-13T16:05:56.949Z,15.42
2022-09-13T16:08:50.934Z,15.40
2022-09-13T16:11:37.946Z,15.37
2022-09-13T16:14:10.996Z,15.35
2022-09-13T16:16:58.923Z,15.30
2022-09-13T16:19:32.020Z,15.27
2022-09-13T16:22:25.928Z,15.24
2022-09-13T16:25:19.937Z,15.19
2022-09-13T16:28:13.955Z,15.13
2022-09-13T16:31:08.061Z,15.10
2022-09-13T16:33:54.974Z,15.05
2022-09-13T16:36:28.961Z,14.99
2022-09-13T16:39:16.004Z,14.91
2022-09-13T16:41:49.115Z,14.86
2022-09-13T16:44:35.964Z,14.81
2022-09-13T16:47:09.067Z,14.75
2022-09-13T16:49:55.942Z,14.69
2022-09-13T16:52:29.250Z,14.64
2022-09-13T16:55:15.947Z,14.61
2022-09-13T16:57:50.280Z,14.58
2022-09-13T17:00:36.944Z,14.55
2022-09-13T17:03:17.015Z,14.51
2022-09-13T17:06:14.976Z,14.47
2022-09-13T17:09:07.937Z,14.44
2022-09-13T17:11:53.973Z,14.41
2022-09-13T17:14:40.971Z,14.38
2022-09-13T17:17:14.063Z,14.34
2022-09-13T17:20:08.004Z,14.29
2022-09-13T17:23:01.988Z,14.25
2022-09-13T17:25:52.986Z,14.23
2022-09-13T17:28:26.047Z,14.22
2022-09-13T17:31:13.025Z,14.18
2022-09-13T17:33:46.161Z,14.17
2022-09-13T17:36:32.978Z,14.14
2022-09-13T17:39:06.115Z,14.13
2022-09-13T17:41:54.970Z,14.09
2022-09-13T17:44:28.093Z,14.08
2022-09-13T17:47:14.978Z,14.07
2022-09-13T17:49:55.000Z,14.05
2022-09-13T17:52:48.989Z,14.05
2022-09-13T17:55:35.997Z,14.04
2022-09-13T17:58:15.980Z,14.02
2022-09-13T18:01:14.091Z,14.00
2022-09-13T18:03:53.993Z,13.97
2022-09-13T18:06:42.000Z,13.95
2022-09-13T18:09:17.129Z,13.94
2022-09-13T18:12:03.990Z,13.90
2022-09-13T18:14:37.045Z,13.87
2022-09-13T18:17:24.000Z,13.84
2022-09-13T18:19:57.092Z,13.83
2022-09-13T18:22:44.003Z,13.78
2022-09-13T18:25:17.137Z,13.75
2022-09-13T18:28:04.021Z,13.71
2022-09-13T18:30:44.152Z,13.66
2022-09-13T18:33:32.004Z,13.64
2022-09-13T18:36:15.999Z,13.63
2022-09-13T18:39:10.994Z,13.61
2022-09-13T18:41:58.021Z,13.58
2022-09-13T18:44:33.664Z,13.57
2022-09-13T18:47:22.003Z,13.56
2022-09-13T18:49:55.149Z,13.56
2022-09-13T18:52:42.007Z,13.55
2022-09-13T18:55:15.243Z,13.53
2022-09-13T18:58:02.022Z,13.51
2022-09-13T19:00:42.029Z,13.49
2022-09-13T19:03:36.077Z,13.47
2022-09-13T19:06:30.021Z,13.45
2022-09-13T19:09:05.275Z,13.40
2022-09-13T19:11:54.015Z,13.38
2022-09-13T19:14:36.053Z,13.38
2022-09-13T19:17:30.039Z,13.36
2022-09-13T19:20:24.033Z,13.35
2022-09-13T19:23:11.031Z,13.33
2022-09-13T19:25:44.199Z,13.32
2022-09-13T19:28:31.029Z,13.34
2022-09-13T19:31:20.131Z,13.35
2022-09-13T19:34:15.078Z,13.31
2022-09-13T19:37:09.062Z,13.31
2022-09-13T19:40:03.141Z,13.31
2022-09-13T19:42:50.042Z,13.30
2022-09-13T19:45:23.335Z,13.30
2022-09-13T19:48:37.782Z,13.32
2022-09-13T19:51:08.199Z,13.30
2022-09-13T19:53:59.062Z,13.32
2022-09-13T19:56:35.163Z,13.32
2022-09-13T19:59:24.041Z,13.32
2022-09-13T20:01:57.300Z,13.32
2022-09-13T20:04:44.107Z,13.31
2022-09-13T20:07:17.121Z,13.29
2022-09-13T20:10:04.063Z,13.30
2022-09-13T20:12:37.766Z,13.30
2022-09-13T20:15:24.053Z,13.31
2022-09-13T20:18:05.037Z,13.30
2022-09-13T20:20:55.062Z,13.31
2022-09-13T20:23:35.059Z,13.33
2022-09-13T20:26:32.071Z,13.31
2022-09-13T20:29:20.055Z,13.26
2022-09-13T20:31:55.410Z,13.24
2022-09-13T20:34:42.056Z,13.25
2022-09-13T20:37:15.253Z,13.25
2022-09-13T20:40:02.103Z,13.26
2022-09-13T20:42:37.299Z,13.25
2022-09-13T20:45:24.092Z,13.26
2022-09-13T20:48:04.058Z,13.26
2022-09-13T20:50:58.065Z,13.23
2022-09-13T20:53:46.073Z,13.22
2022-09-13T20:56:24.742Z,13.24
2022-09-13T20:59:11.073Z,13.24
2022-09-13T21:01:44.225Z,13.25
2022-09-13T21:04:31.096Z,13.25
2022-09-13T21:07:29.063Z,13.25
2022-09-13T21:10:23.068Z,13.26
2022-09-13T21:13:10.087Z,13.26
2022-09-13T21:15:50.065Z,13.26
2022-09-13T21:18:45.102Z,13.25
2022-09-13T21:21:36.091Z,13.26
2022-09-13T21:24:18.148Z,13.27
2022-09-13T21:27:12.218Z,13.27
2022-09-13T21:30:06.082Z,13.25
2022-09-13T21:33:00.109Z,13.22
2022-09-13T21:35:54.095Z,13.20
2022-09-13T21:38:49.177Z,13.20
2022-09-13T21:41:43.077Z,13.20
2022-09-13T21:44:37.116Z,13.23
2022-09-13T21:47:24.093Z,13.23
2022-09-13T21:50:04.120Z,13.23
2022-09-13T21:52:51.113Z,13.25
2022-09-13T21:55:31.095Z,13.27
2022-09-13T21:58:18.141Z,13.27
2022-09-13T22:00:58.170Z,13.27
2022-09-13T22:03:48.116Z,13.27
2022-09-13T22:06:33.159Z,13.27
2022-09-13T22:09:28.115Z,13.24
2022-09-13T22:12:15.071Z,13.24
2022-09-13T22:14:48.602Z,13.22
2022-09-13T22:17:35.117Z,13.22
2022-09-13T22:20:08.190Z,13.22
2022-09-13T22:22:55.121Z,13.21
2022-09-13T22:25:28.176Z,13.21
2022-09-13T22:28:15.114Z,13.20
2022-09-13T22:30:48.210Z,13.19
2022-09-13T22:33:35.122Z,13.19
2022-09-13T22:36:11.340Z,13.18
2022-09-13T22:38:59.114Z,13.18
2022-09-13T22:41:35.422Z,13.18
2022-09-13T22:44:22.127Z,13.15
2022-09-13T22:46:55.262Z,13.15
2022-09-13T22:49:42.124Z,13.14
2022-09-13T22:52:15.218Z,13.12
2022-09-13T22:55:02.141Z,13.11
2022-09-13T22:57:35.248Z,13.10
2022-09-13T23:00:22.119Z,13.10
2022-09-13T23:02:55.224Z,13.09
2022-09-13T23:05:35.128Z,13.09
2022-09-13T23:08:16.213Z,13.08
2022-09-13T23:10:56.152Z,13.08
2022-09-13T23:13:36.210Z,13.09
2022-09-13T23:16:22.210Z,13.09
2022-09-13T23:19:03.138Z,13.08
2022-09-13T23:21:40.225Z,13.09
2022-09-13T23:24:27.151Z,13.09
2022-09-13T23:27:01.704Z,13.09
2022-09-13T23:29:48.140Z,13.08
2022-09-13T23:32:28.152Z,13.07
2022-09-13T23:35:22.162Z,13.06
2022-09-13T23:38:17.174Z,13.05
2022-09-13T23:41:11.168Z,13.04
2022-09-13T23:43:59.168Z,13.03
2022-09-13T23:46:32.208Z,13.02
2022-09-13T23:49:19.157Z,13.01
2022-09-13T23:51:59.161Z,13.00
2022-09-13T23:54:53.174Z,12.95
2022-09-13T23:57:40.148Z,12.93
